Time;durP1;ratioP1;P1;durP2;ratioP2;P2;SDS_P1;SDS_P2;PMS_P1;PMS_P2;Temp;Humidity;BMP_temperature;BMP_pressure;BME280_temperature;BME280_humidity;BME280_pressure;Samples;Min_cycle;Max_cycle;Signal;HPM_P1;HPM_P2
2021/05/28 00:01:24;;;;;;;3.97;1.00;;;17.20;78.60;;;;;;5065817;28;20043;-69
2021/05/28 00:03:51;;;;;;;3.92;1.00;;;17.20;78.70;;;;;;5058881;28;20343;-68
2021/05/28 00:06:17;;;;;;;4.00;1.00;;;17.20;78.80;;;;;;5063769;28;20025;-68
2021/05/28 00:08:44;;;;;;;1.90;0.60;;;17.20;78.80;;;;;;5060801;28;20020;-68
2021/05/28 00:11:10;;;;;;;2.17;0.70;;;17.10;78.70;;;;;;5058477;28;20017;-71
2021/05/28 00:13:37;;;;;;;3.63;1.00;;;17.20;78.80;;;;;;5061112;28;20476;-68
2021/05/28 00:16:04;;;;;;;3.28;0.93;;;17.10;78.90;;;;;;5063722;28;20383;-68
2021/05/28 00:18:31;;;;;;;3.63;0.90;;;17.10;78.90;;;;;;5059192;28;20024;-69
2021/05/28 00:20:57;;;;;;;2.03;1.23;;;17.10;78.90;;;;;;5059931;28;20352;-69
2021/05/28 00:23:24;;;;;;;1.83;1.00;;;17.10;79.10;;;;;;5044922;28;20380;-68
2021/05/28 00:25:50;;;;;;;3.10;0.98;;;17.10;79.20;;;;;;5058540;28;20048;-68
2021/05/28 00:28:17;;;;;;;6.68;1.00;;;17.10;79.20;;;;;;5060224;28;20479;-70
2021/05/28 00:30:44;;;;;;;1.23;0.93;;;17.10;79.30;;;;;;5060596;28;20018;-69
2021/05/28 00:33:10;;;;;;;1.15;0.73;;;17.10;79.40;;;;;;5062109;28;20033;-68
2021/05/28 00:35:37;;;;;;;1.63;0.88;;;17.10;79.40;;;;;;5058093;28;20430;-68
2021/05/28 00:38:03;;;;;;;2.00;0.95;;;17.10;79.50;;;;;;5059529;28;20108;-70
2021/05/28 00:40:30;;;;;;;2.28;0.82;;;17.10;79.50;;;;;;5058645;28;20143;-70
2021/05/28 00:42:56;;;;;;;2.97;1.00;;;17.10;79.60;;;;;;5058046;28;20107;-68
2021/05/28 00:45:23;;;;;;;4.38;0.88;;;17.10;79.70;;;;;;5059964;28;20028;-69
2021/05/28 00:47:49;;;;;;;1.55;0.70;;;17.10;79.80;;;;;;5060760;28;20106;-69
2021/05/28 00:50:16;;;;;;;3.67;1.25;;;17.10;79.70;;;;;;5061247;28;20024;-70
2021/05/28 00:52:43;;;;;;;5.13;1.33;;;17.10;79.70;;;;;;5061092;28;20105;-69
2021/05/28 00:55:10;;;;;;;2.47;1.05;;;17.10;79.90;;;;;;5061490;28;20020;-68
2021/05/28 00:57:37;;;;;;;2.25;0.88;;;17.10;80.00;;;;;;5059479;28;20013;-71
2021/05/28 01:00:07;;;;;;;2.50;0.98;;;17.10;80.00;;;;;;5059573;28;20027;-68
2021/05/28 01:02:33;;;;;;;4.90;0.80;;;17.10;80.10;;;;;;5061807;28;20427;-69
2021/05/28 01:05:00;;;;;;;4.53;1.05;;;17.10;80.20;;;;;;5058581;28;20069;-71
2021/05/28 01:07:26;;;;;;;4.50;0.65;;;17.10;80.30;;;;;;5059143;28;20029;-68
2021/05/28 01:09:53;;;;;;;1.77;0.90;;;17.10;80.30;;;;;;5051482;28;20028;-70
2021/05/28 01:12:19;;;;;;;3.80;1.00;;;17.10;80.30;;;;;;5063006;28;20009;-68
2021/05/28 01:14:50;;;;;;;4.43;0.80;;;17.00;80.40;;;;;;5065691;28;20028;-68
2021/05/28 01:17:17;;;;;;;2.95;0.88;;;17.10;80.60;;;;;;5061079;28;20416;-68
2021/05/28 01:19:44;;;;;;;2.75;0.80;;;17.10;80.60;;;;;;5061248;28;20051;-70
2021/05/28 01:22:10;;;;;;;1.45;0.70;;;17.10;81.20;;;;;;5059263;28;20708;-68
2021/05/28 01:24:37;;;;;;;1.50;0.70;;;17.00;80.40;;;;;;5064207;28;20067;-68
2021/05/28 01:27:04;;;;;;;2.40;0.90;;;17.10;80.50;;;;;;5061127;28;20479;-68
2021/05/28 01:29:31;;;;;;;2.90;0.70;;;17.00;80.40;;;;;;5061176;28;20066;-69
2021/05/28 01:31:57;;;;;;;2.00;0.90;;;17.10;80.50;;;;;;5063234;28;20066;-68
2021/05/28 01:34:24;;;;;;;1.88;0.73;;;17.10;80.60;;;;;;5059520;28;20064;-68
2021/05/28 01:36:50;;;;;;;2.55;0.50;;;17.10;80.40;;;;;;5063521;28;20463;-70
2021/05/28 01:39:17;;;;;;;1.92;0.60;;;17.00;80.40;;;;;;5062494;28;20017;-69
2021/05/28 01:41:43;;;;;;;1.35;0.55;;;17.00;80.30;;;;;;5048686;28;20616;-69
2021/05/28 01:44:11;;;;;;;2.63;0.98;;;17.00;80.30;;;;;;5059770;28;20017;-68
2021/05/28 01:46:38;;;;;;;3.22;0.73;;;17.00;80.40;;;;;;5062480;28;20104;-69
2021/05/28 01:49:06;;;;;;;2.22;0.98;;;17.00;80.30;;;;;;5061824;28;20024;-69
2021/05/28 01:51:51;;;;;;;1.65;0.60;;;17.00;80.30;;;;;;5059156;28;20457;-68
2021/05/28 01:54:19;;;;;;;1.00;0.50;;;17.00;80.40;;;;;;5064326;28;20704;-68
2021/05/28 01:56:47;;;;;;;1.48;0.55;;;17.00;80.50;;;;;;5068113;28;20021;-68
2021/05/28 01:59:33;;;;;;;1.30;0.57;;;17.00;80.40;;;;;;5065611;28;20028;-68
2021/05/28 02:02:00;;;;;;;2.50;0.50;;;17.00;80.50;;;;;;5069779;28;20027;-68
2021/05/28 02:04:27;;;;;;;2.13;0.77;;;17.00;80.60;;;;;;5066952;28;20475;-68
2021/05/28 02:06:55;;;;;;;2.35;0.85;;;17.00;80.60;;;;;;5061906;28;20109;-68
2021/05/28 02:09:22;;;;;;;2.10;0.65;;;17.00;80.60;;;;;;5061900;28;20099;-68
2021/05/28 02:11:48;;;;;;;2.80;0.90;;;17.00;80.70;;;;;;5063381;28;20017;-69
2021/05/28 02:14:15;;;;;;;4.97;1.13;;;17.00;80.90;;;;;;5060013;28;20042;-69
2021/05/28 02:16:42;;;;;;;2.08;0.57;;;17.00;81.10;;;;;;5062410;28;20020;-69
2021/05/28 02:19:09;;;;;;;4.25;0.60;;;17.00;81.40;;;;;;5061396;28;20051;-69
2021/05/28 02:21:37;;;;;;;2.05;0.93;;;17.00;81.50;;;;;;5062971;28;20013;-68
2021/05/28 02:24:05;;;;;;;2.72;0.70;;;17.00;81.70;;;;;;5059505;28;20958;-68
2021/05/28 02:26:31;;;;;;;0.68;0.65;;;17.00;82.00;;;;;;5046479;28;20485;-69
2021/05/28 02:28:58;;;;;;;5.35;1.30;;;17.00;82.20;;;;;;5061804;28;20778;-69
2021/05/28 02:31:24;;;;;;;12.50;4.50;;;17.00;82.40;;;;;;5061465;28;20024;-68
2021/05/28 02:33:51;;;;;;;6.75;4.25;;;17.00;82.50;;;;;;5063641;28;20989;-68
2021/05/28 02:36:17;;;;;;;6.00;3.42;;;17.00;82.50;;;;;;5063414;28;20013;-69
2021/05/28 02:38:44;;;;;;;7.72;3.05;;;17.00;82.50;;;;;;5060339;28;20021;-69
2021/05/28 02:41:10;;;;;;;5.30;2.53;;;17.00;82.60;;;;;;5060919;28;20044;-68
2021/05/28 02:43:37;;;;;;;4.90;2.47;;;17.00;82.80;;;;;;5061137;28;20472;-68
2021/05/28 02:46:03;;;;;;;3.25;1.88;;;17.00;83.00;;;;;;5060992;28;20013;-69
2021/05/28 02:48:30;;;;;;;3.63;1.70;;;17.10;83.20;;;;;;5058672;28;20318;-70
2021/05/28 02:50:56;;;;;;;4.25;1.40;;;17.00;83.30;;;;;;5064234;28;20107;-69
2021/05/28 02:53:23;;;;;;;2.67;1.48;;;17.00;83.20;;;;;;5062143;28;20121;-68
2021/05/28 02:55:49;;;;;;;3.10;1.25;;;17.00;83.20;;;;;;5063029;28;20028;-69
2021/05/28 02:58:16;;;;;;;2.80;1.58;;;17.00;83.30;;;;;;5059818;28;20096;-69
2021/05/28 03:00:42;;;;;;;2.25;1.58;;;17.00;83.30;;;;;;5059583;28;20028;-69
2021/05/28 03:03:09;;;;;;;4.47;1.50;;;17.00;83.30;;;;;;5060399;28;20435;-69
2021/05/28 03:05:35;;;;;;;3.40;1.17;;;17.00;83.40;;;;;;5062409;28;20021;-68
2021/05/28 03:08:02;;;;;;;2.65;1.50;;;17.00;83.40;;;;;;5060683;28;20567;-69
2021/05/28 03:10:28;;;;;;;6.25;1.42;;;17.00;83.50;;;;;;5059651;28;20047;-68
2021/05/28 03:12:55;;;;;;;4.78;1.08;;;17.00;83.60;;;;;;5060485;28;20274;-69
2021/05/28 03:15:21;;;;;;;4.88;1.35;;;17.00;83.80;;;;;;5047143;28;20020;-69
2021/05/28 03:17:48;;;;;;;3.28;1.50;;;17.00;84.10;;;;;;5063719;28;20115;-68
2021/05/28 03:20:35;;;;;;;4.97;2.47;;;17.00;84.40;;;;;;5062348;28;20013;-69
2021/05/28 03:23:06;;;;;;;8.07;5.65;;;17.00;84.60;;;;;;5063027;28;20020;-69
2021/05/28 03:25:32;;;;;;;11.35;5.47;;;17.00;84.70;;;;;;5059011;28;20388;-69
2021/05/28 03:27:59;;;;;;;6.47;4.63;;;17.00;84.80;;;;;;5060811;28;20115;-69
2021/05/28 03:30:26;;;;;;;5.38;4.05;;;17.10;84.90;;;;;;5060230;28;20028;-69
2021/05/28 03:32:53;;;;;;;7.03;3.42;;;17.10;84.90;;;;;;5059674;28;20377;-68
2021/05/28 03:35:19;;;;;;;4.43;2.85;;;17.00;84.90;;;;;;5060298;28;20387;-69
2021/05/28 03:37:46;;;;;;;2.83;1.85;;;17.00;85.00;;;;;;5061924;28;20024;-70
2021/05/28 03:40:13;;;;;;;3.42;2.35;;;17.00;85.10;;;;;;5059555;28;20032;-69
2021/05/28 03:42:39;;;;;;;2.67;1.42;;;17.00;85.20;;;;;;5059029;28;20024;-68
2021/05/28 03:45:07;;;;;;;3.65;1.67;;;17.00;85.20;;;;;;5058429;28;20032;-69
2021/05/28 03:47:35;;;;;;;2.38;1.40;;;17.00;85.40;;;;;;5060334;28;20023;-69
2021/05/28 03:50:02;;;;;;;2.42;1.05;;;17.00;85.30;;;;;;5057833;28;20017;-68
2021/05/28 03:52:29;;;;;;;1.60;0.90;;;17.00;85.30;;;;;;5061572;28;20008;-69
2021/05/28 03:54:55;;;;;;;4.95;1.05;;;17.00;85.30;;;;;;5061177;28;20056;-68
2021/05/28 03:57:22;;;;;;;1.38;0.93;;;17.10;85.50;;;;;;5059441;28;20016;-70
2021/05/28 03:59:48;;;;;;;2.92;1.00;;;17.10;85.60;;;;;;5060736;28;20021;-69
2021/05/28 04:02:15;;;;;;;1.90;0.70;;;17.10;85.70;;;;;;5055462;28;20078;-71
2021/05/28 04:04:42;;;;;;;2.08;0.80;;;17.10;85.90;;;;;;5061997;28;20028;-71
2021/05/28 04:07:08;;;;;;;2.25;0.90;;;17.10;86.00;;;;;;5051202;28;20056;-71
2021/05/28 04:09:35;;;;;;;2.00;0.60;;;17.10;86.00;;;;;;5052577;28;20502;-70
2021/05/28 04:12:02;;;;;;;10.60;7.55;;;17.10;86.10;;;;;;5056211;28;20017;-72
2021/05/28 04:14:29;;;;;;;9.63;7.97;;;17.00;86.10;;;;;;5054342;28;20051;-72
2021/05/28 04:16:55;;;;;;;7.50;5.40;;;17.00;86.10;;;;;;5054484;28;20027;-71
2021/05/28 04:19:22;;;;;;;6.80;5.97;;;17.10;86.10;;;;;;5053210;28;20021;-67
2021/05/28 04:21:51;;;;;;;5.50;3.72;;;17.10;86.10;;;;;;5056323;28;20393;-67
2021/05/28 04:24:58;;;;;;;4.05;2.97;;;17.10;86.10;;;;;;5052775;28;20041;-68
2021/05/28 04:27:27;;;;;;;7.25;2.70;;;17.10;86.20;;;;;;5056245;28;20025;-68
2021/05/28 04:29:54;;;;;;;5.35;2.90;;;17.00;86.20;;;;;;5060651;28;20013;-68
2021/05/28 04:32:20;;;;;;;5.70;2.50;;;17.10;86.30;;;;;;5057524;28;20020;-67
2021/05/28 04:34:48;;;;;;;2.30;2.00;;;17.10;86.30;;;;;;5058227;28;20567;-67
2021/05/28 04:37:14;;;;;;;4.88;4.32;;;17.10;86.40;;;;;;5051858;28;21752;-68
2021/05/28 04:39:40;;;;;;;12.23;10.60;;;17.10;86.50;;;;;;5059511;28;20043;-67
2021/05/28 04:42:07;;;;;;;11.48;8.93;;;17.10;86.60;;;;;;5057413;28;20100;-66
2021/05/28 04:44:34;;;;;;;7.90;6.88;;;17.10;86.70;;;;;;5058113;28;20019;-67
2021/05/28 04:47:01;;;;;;;6.85;5.40;;;17.10;86.70;;;;;;5064724;28;20016;-67
2021/05/28 04:49:28;;;;;;;5.80;4.80;;;17.10;86.80;;;;;;5063426;28;20024;-67
2021/05/28 04:51:55;;;;;;;6.22;4.00;;;17.10;86.90;;;;;;5064199;28;20029;-68
2021/05/28 04:54:22;;;;;;;6.32;4.47;;;17.10;87.00;;;;;;5060782;28;20159;-67
2021/05/28 04:56:48;;;;;;;3.83;2.90;;;17.10;87.00;;;;;;5064168;28;20021;-67
2021/05/28 04:59:15;;;;;;;7.32;3.15;;;17.10;87.10;;;;;;5063494;28;20488;-68
2021/05/28 05:01:41;;;;;;;4.40;2.03;;;17.10;87.10;;;;;;5042237;28;20074;-67
2021/05/28 05:04:08;;;;;;;5.88;2.03;;;17.10;87.20;;;;;;5061370;28;20029;-68
2021/05/28 05:06:34;;;;;;;5.15;2.03;;;17.00;87.20;;;;;;5059965;28;20012;-68
2021/05/28 05:09:01;;;;;;;4.75;1.70;;;17.10;87.20;;;;;;5061116;28;20108;-67
2021/05/28 05:11:27;;;;;;;6.63;3.30;;;17.10;87.40;;;;;;5064354;28;20426;-67
2021/05/28 05:13:54;;;;;;;3.45;1.65;;;17.10;87.40;;;;;;5066313;28;20051;-67
2021/05/28 05:16:20;;;;;;;6.20;2.47;;;17.10;87.40;;;;;;5062515;28;20484;-68
2021/05/28 05:18:47;;;;;;;6.45;2.88;;;17.00;87.40;;;;;;5064413;28;20629;-67
2021/05/28 05:21:14;;;;;;;5.40;2.38;;;17.10;87.50;;;;;;5063886;28;20048;-67
2021/05/28 05:23:40;;;;;;;6.78;2.45;;;17.00;87.40;;;;;;5063665;28;20020;-67
2021/05/28 05:26:06;;;;;;;3.50;2.08;;;17.10;87.50;;;;;;5061891;28;20045;-69
2021/05/28 05:28:33;;;;;;;5.45;2.00;;;17.00;87.50;;;;;;5062785;28;20022;-69
2021/05/28 05:30:59;;;;;;;4.40;2.22;;;17.10;87.60;;;;;;5061727;28;20048;-69
2021/05/28 05:33:26;;;;;;;4.93;1.88;;;17.10;87.50;;;;;;5063201;28;20039;-67
2021/05/28 05:35:53;;;;;;;5.32;2.30;;;17.00;87.50;;;;;;5066601;28;20020;-67
2021/05/28 05:38:19;;;;;;;10.32;2.90;;;17.10;87.60;;;;;;5067978;28;20449;-67
2021/05/28 05:40:46;;;;;;;5.53;2.05;;;17.10;87.60;;;;;;5069515;28;20087;-67
2021/05/28 05:43:13;;;;;;;5.07;2.17;;;17.10;87.70;;;;;;5069669;28;20008;-67
2021/05/28 05:45:40;;;;;;;7.97;2.10;;;17.10;87.70;;;;;;5068830;28;20013;-67
2021/05/28 05:48:07;;;;;;;5.60;2.50;;;17.10;87.70;;;;;;5069949;28;20074;-68
2021/05/28 05:50:34;;;;;;;9.40;2.45;;;17.10;87.70;;;;;;5063950;28;20435;-67
2021/05/28 05:53:00;;;;;;;4.68;1.90;;;17.10;87.70;;;;;;5065665;28;20064;-67
2021/05/28 05:55:27;;;;;;;11.23;2.17;;;17.10;87.70;;;;;;5060620;28;20641;-67
2021/05/28 05:57:53;;;;;;;10.35;3.05;;;17.10;87.70;;;;;;5064040;28;20020;-67
2021/05/28 06:00:21;;;;;;;6.43;2.20;;;17.10;87.70;;;;;;5067969;28;20044;-69
2021/05/28 06:02:47;;;;;;;10.73;2.60;;;17.10;87.70;;;;;;5066247;28;20383;-67
2021/05/28 06:05:14;;;;;;;7.38;2.00;;;17.10;87.80;;;;;;5066991;28;20124;-67
2021/05/28 06:07:43;;;;;;;9.88;2.78;;;17.10;87.90;;;;;;5067402;28;20021;-67
2021/05/28 06:10:11;;;;;;;7.00;2.15;;;17.10;88.50;;;;;;5068505;28;20944;-67
2021/05/28 06:12:37;;;;;;;6.47;2.10;;;17.10;87.90;;;;;;5068615;28;20013;-67
2021/05/28 06:15:05;;;;;;;4.03;2.10;;;17.10;88.00;;;;;;5067690;28;20044;-68
2021/05/28 06:17:32;;;;;;;5.28;1.92;;;17.10;87.90;;;;;;5069764;28;20064;-66
2021/05/28 06:19:58;;;;;;;4.45;1.70;;;17.10;88.10;;;;;;5065698;28;20013;-69
2021/05/28 06:22:25;;;;;;;5.60;2.00;;;17.10;88.10;;;;;;5064732;28;20142;-66
2021/05/28 06:24:52;;;;;;;4.30;1.42;;;17.10;88.40;;;;;;5065435;28;20065;-69
2021/05/28 06:27:19;;;;;;;2.83;2.33;;;17.10;88.20;;;;;;5065383;28;20030;-67
2021/05/28 06:29:45;;;;;;;3.33;1.42;;;17.10;88.20;;;;;;5066052;28;20047;-66
2021/05/28 06:32:12;;;;;;;2.75;1.17;;;17.10;88.30;;;;;;5065890;28;20044;-68
2021/05/28 06:34:38;;;;;;;4.95;1.48;;;17.10;88.30;;;;;;5068139;28;20028;-68
2021/05/28 06:37:05;;;;;;;1.75;1.40;;;17.10;88.30;;;;;;5064621;28;20017;-69
2021/05/28 06:39:31;;;;;;;4.82;1.67;;;17.10;88.30;;;;;;5069000;28;20051;-67
2021/05/28 06:41:58;;;;;;;2.42;0.93;;;17.10;88.40;;;;;;5067108;28;20059;-67
2021/05/28 06:44:24;;;;;;;3.50;1.10;;;17.10;88.40;;;;;;5067868;28;20032;-67
2021/05/28 06:46:52;;;;;;;5.32;1.70;;;17.10;88.30;;;;;;5064977;28;20095;-67
2021/05/28 06:49:20;;;;;;;5.35;1.15;;;17.20;88.40;;;;;;5068256;28;20022;-69
2021/05/28 06:51:47;;;;;;;9.23;2.00;;;17.20;88.50;;;;;;5065339;28;20017;-67
2021/05/28 06:54:15;;;;;;;6.68;1.73;;;17.20;88.60;;;;;;5049422;28;20107;-69
2021/05/28 06:56:42;;;;;;;4.53;1.83;;;17.20;88.60;;;;;;5064289;28;20103;-68
2021/05/28 06:59:10;;;;;;;6.68;1.92;;;17.20;88.60;;;;;;5063526;28;20012;-67
2021/05/28 07:01:36;;;;;;;6.75;2.80;;;17.20;88.70;;;;;;5061382;28;20031;-68
2021/05/28 07:04:04;;;;;;;7.22;3.08;;;17.20;88.80;;;;;;5066191;28;20033;-69
2021/05/28 07:06:32;;;;;;;4.07;1.40;;;17.30;88.90;;;;;;5066972;28;20017;-68
2021/05/28 07:08:59;;;;;;;8.32;1.95;;;17.30;88.90;;;;;;5065059;28;20048;-68
2021/05/28 07:11:26;;;;;;;6.57;2.30;;;17.30;89.20;;;;;;5064207;28;21079;-69
2021/05/28 07:13:52;;;;;;;6.43;2.20;;;17.30;89.10;;;;;;5066656;28;20495;-67
2021/05/28 07:16:19;;;;;;;7.82;2.30;;;17.30;89.20;;;;;;5066733;28;20013;-67
2021/05/28 07:18:47;;;;;;;5.63;1.98;;;17.30;89.30;;;;;;5066745;28;20042;-67
2021/05/28 07:21:13;;;;;;;5.72;1.70;;;17.30;89.50;;;;;;5065379;28;20021;-68
2021/05/28 07:23:40;;;;;;;5.47;2.42;;;17.30;89.60;;;;;;5066420;28;20657;-67
2021/05/28 07:26:06;;;;;;;11.00;1.85;;;17.30;89.60;;;;;;5066300;28;20029;-67
2021/05/28 07:28:33;;;;;;;6.85;2.00;;;17.40;89.70;;;;;;5068441;28;20016;-68
2021/05/28 07:31:00;;;;;;;5.85;1.92;;;17.40;89.70;;;;;;5065188;28;20048;-69
2021/05/28 07:33:27;;;;;;;7.47;1.55;;;17.40;89.70;;;;;;5066896;28;20032;-71
2021/05/28 07:35:54;;;;;;;7.65;2.08;;;17.40;89.70;;;;;;5067454;28;20020;-67
2021/05/28 07:38:20;;;;;;;5.55;1.60;;;17.40;89.60;;;;;;5064501;28;20434;-68
2021/05/28 07:40:47;;;;;;;5.43;2.20;;;17.40;89.60;;;;;;5068391;28;20058;-68
2021/05/28 07:43:13;;;;;;;7.65;2.72;;;17.40;89.60;;;;;;5064039;28;20372;-66
2021/05/28 07:45:40;;;;;;;8.85;3.03;;;17.40;89.60;;;;;;5048678;28;20149;-67
2021/05/28 07:48:07;;;;;;;11.98;3.88;;;17.40;89.60;;;;;;5064587;28;20020;-67
2021/05/28 07:50:58;;;;;;;9.23;2.42;;;17.40;90.10;;;;;;5067801;28;20020;-66
2021/05/28 07:53:23;;;;;;;7.00;1.98;;;17.50;89.90;;;;;;5063678;28;20395;-66
2021/05/28 07:55:50;;;;;;;13.40;4.47;;;17.50;89.90;;;;;;5064325;28;20469;-67
2021/05/28 07:58:17;;;;;;;7.07;2.67;;;17.50;90.00;;;;;;5064045;28;20032;-67
2021/05/28 08:00:43;;;;;;;10.85;3.38;;;17.50;90.00;;;;;;5065892;28;20095;-67
2021/05/28 08:03:10;;;;;;;8.75;2.90;;;17.50;90.10;;;;;;5067232;28;20379;-67
2021/05/28 08:05:37;;;;;;;11.32;3.58;;;17.50;90.10;;;;;;5065432;28;20032;-68
2021/05/28 08:08:04;;;;;;;8.18;3.42;;;17.50;90.20;;;;;;5059649;28;20016;-69
2021/05/28 08:10:31;;;;;;;11.70;3.88;;;17.60;90.20;;;;;;5066021;28;20471;-68
2021/05/28 08:12:57;;;;;;;18.00;4.60;;;17.60;90.30;;;;;;5064483;28;20047;-68
2021/05/28 08:15:25;;;;;;;24.00;6.10;;;17.60;90.40;;;;;;5065114;28;20017;-68
2021/05/28 08:17:51;;;;;;;17.75;4.38;;;17.70;90.50;;;;;;5064505;28;20012;-67
2021/05/28 08:20:18;;;;;;;12.00;4.20;;;17.70;90.60;;;;;;5065949;28;20093;-67
2021/05/28 08:22:45;;;;;;;20.30;6.07;;;17.70;90.60;;;;;;5070610;28;20020;-69
2021/05/28 08:25:13;;;;;;;16.92;4.10;;;17.70;90.70;;;;;;5069567;28;20519;-68
2021/05/28 08:27:40;;;;;;;17.85;4.60;;;17.80;90.80;;;;;;5072348;28;20016;-67
2021/05/28 08:30:08;;;;;;;28.85;5.97;;;17.80;91.10;;;;;;5065014;28;20060;-67
2021/05/28 08:32:34;;;;;;;21.13;5.13;;;17.80;90.90;;;;;;5072252;28;20054;-67
2021/05/28 08:35:01;;;;;;;18.10;4.30;;;17.90;91.10;;;;;;5068415;28;20033;-69
2021/05/28 08:37:27;;;;;;;20.60;4.38;;;17.90;91.10;;;;;;5070060;28;20345;-68
2021/05/28 08:39:54;;;;;;;18.20;4.80;;;17.90;91.20;;;;;;5064375;28;20050;-68
2021/05/28 08:42:21;;;;;;;21.27;5.38;;;17.90;91.20;;;;;;5069018;28;20158;-69
2021/05/28 08:44:49;;;;;;;18.55;4.15;;;17.90;91.30;;;;;;5067314;28;20407;-69
2021/05/28 08:47:16;;;;;;;13.80;3.78;;;18.00;91.30;;;;;;5067646;28;20027;-67
2021/05/28 08:49:52;;;;;;;20.95;6.03;;;18.00;91.30;;;;;;5070404;28;20017;-67
2021/05/28 08:52:20;;;;;;;14.82;5.15;;;18.00;91.30;;;;;;5066178;28;20443;-67
2021/05/28 08:54:49;;;;;;;17.35;4.30;;;18.00;91.30;;;;;;5070571;28;20024;-68
2021/05/28 08:57:19;;;;;;;20.70;4.30;;;18.00;91.30;;;;;;5065535;28;20028;-69
2021/05/28 08:59:46;;;;;;;13.98;4.20;;;18.00;91.40;;;;;;5068178;28;20012;-68
2021/05/28 09:02:33;;;;;;;15.23;4.00;;;18.00;91.40;;;;;;5070416;28;20606;-67
2021/05/28 09:05:07;;;;;;;14.95;3.90;;;18.00;91.40;;;;;;5067479;28;20488;-68
2021/05/28 09:07:33;;;;;;;17.05;4.22;;;18.00;91.50;;;;;;5067757;28;20043;-67
2021/05/28 09:10:00;;;;;;;17.17;5.72;;;18.00;91.50;;;;;;5069673;28;20107;-67
2021/05/28 09:12:28;;;;;;;20.65;4.45;;;18.00;91.50;;;;;;5070881;28;20705;-67
2021/05/28 09:14:54;;;;;;;15.90;4.75;;;18.00;91.50;;;;;;5067151;28;20045;-67
2021/05/28 09:17:21;;;;;;;17.95;3.72;;;18.00;91.60;;;;;;5052884;28;20384;-68
2021/05/28 09:19:54;;;;;;;13.68;4.15;;;18.00;91.60;;;;;;5068707;28;20055;-68
2021/05/28 09:22:31;;;;;;;19.00;4.45;;;18.00;91.60;;;;;;5066646;28;20086;-67
2021/05/28 09:24:57;;;;;;;14.23;3.90;;;18.10;91.60;;;;;;5067496;28;20041;-66
2021/05/28 09:27:27;;;;;;;14.07;4.22;;;18.10;91.60;;;;;;5065695;28;20045;-67
2021/05/28 09:30:13;;;;;;;12.18;3.05;;;18.10;91.70;;;;;;5068711;28;20457;-66
2021/05/28 09:32:43;;;;;;;;;;;18.20;91.70;;;;;;5067058;28;20043;-67
2021/05/28 09:35:12;;;;;;;14.02;4.20;;;18.20;91.80;;;;;;5064395;28;20348;-68
2021/05/28 09:37:43;;;;;;;18.80;5.20;;;18.30;92.10;;;;;;5066678;28;20087;-67
2021/05/28 09:40:17;;;;;;;15.85;3.90;;;18.40;91.80;;;;;;5064215;28;20033;-68
2021/05/28 09:42:48;;;;;;;17.70;4.60;;;18.50;91.70;;;;;;5064928;28;20046;-69
2021/05/28 09:45:32;;;;;;;15.10;5.32;;;18.50;91.70;;;;;;5068253;28;20020;-67
2021/05/28 09:48:02;;;;;;;17.60;4.00;;;18.60;91.60;;;;;;5066410;28;20017;-67
2021/05/28 09:50:32;;;;;;;13.02;3.53;;;18.70;91.50;;;;;;5069122;28;20353;-67
2021/05/28 09:53:03;;;;;;;15.30;3.80;;;18.80;91.30;;;;;;5067716;28;20024;-69
2021/05/28 09:55:36;;;;;;;15.20;4.05;;;18.80;91.10;;;;;;5063294;28;20029;-68
2021/05/28 09:58:02;;;;;;;15.15;3.38;;;18.80;91.00;;;;;;5062706;28;20035;-68
2021/05/28 10:00:38;;;;;;;15.70;3.15;;;18.90;90.90;;;;;;5067740;28;20005;-67
2021/05/28 10:03:16;;;;;;;17.17;4.78;;;18.90;90.80;;;;;;5063809;28;20418;-68
2021/05/28 10:05:58;;;;;;;12.05;3.03;;;19.00;90.70;;;;;;5064170;28;20027;-67
2021/05/28 10:08:28;;;;;;;9.77;3.42;;;19.00;90.50;;;;;;5067586;28;20056;-67
2021/05/28 10:10:57;;;;;;;14.57;3.95;;;19.00;90.50;;;;;;5067541;28;20020;-68
2021/05/28 10:13:28;;;;;;;15.77;4.00;;;19.10;90.40;;;;;;5062848;28;20037;-67
2021/05/28 10:15:56;;;;;;;14.52;4.25;;;19.10;90.30;;;;;;5063417;28;20028;-68
2021/05/28 10:18:23;;;;;;;26.05;6.50;;;19.20;90.20;;;;;;5065173;28;20020;-68
2021/05/28 10:20:53;;;;;;;16.10;3.38;;;19.20;90.10;;;;;;5065658;28;20016;-67
2021/05/28 10:23:20;;;;;;;16.85;3.72;;;19.20;90.00;;;;;;5066192;28;20467;-68
2021/05/28 10:25:47;;;;;;;15.23;4.18;;;19.20;89.80;;;;;;4976237;28;2647112;-67
2021/05/28 10:28:19;;;;;;;14.10;3.05;;;19.20;89.50;;;;;;5069048;28;20053;-67
2021/05/28 10:30:47;;;;;;;13.30;3.10;;;19.20;89.40;;;;;;5067166;28;20020;-67
2021/05/28 10:33:16;;;;;;;23.38;3.70;;;19.20;89.30;;;;;;5066197;28;20048;-67
2021/05/28 10:35:46;;;;;;;10.68;2.70;;;19.20;89.30;;;;;;5063358;28;20107;-67
2021/05/28 10:38:31;;;;;;;10.00;3.53;;;19.10;89.40;;;;;;5066817;28;20017;-68
2021/05/28 10:41:07;;;;;;;11.35;3.42;;;19.10;89.40;;;;;;5063920;28;20028;-67
2021/05/28 10:43:35;;;;;;;11.63;3.72;;;19.10;89.50;;;;;;5065952;28;20483;-68
2021/05/28 10:46:09;;;;;;;17.50;3.72;;;19.10;89.50;;;;;;5065643;28;20484;-67
2021/05/28 10:48:42;;;;;;;13.52;3.78;;;19.10;89.50;;;;;;5063696;28;20403;-67
2021/05/28 10:51:30;;;;;;;19.33;4.20;;;19.10;89.50;;;;;;5068683;28;20112;-68
2021/05/28 10:53:56;;;;;;;11.20;4.00;;;19.10;89.80;;;;;;5064056;28;20033;-66
2021/05/28 10:56:28;;;;;;;12.23;3.42;;;19.10;89.80;;;;;;5069041;28;20016;-67
2021/05/28 10:58:57;;;;;;;14.48;4.32;;;19.10;89.70;;;;;;5068118;28;20383;-69
2021/05/28 11:03:59;;;;;;;12.32;4.43;;;19.10;89.50;;;;;;5067275;28;20024;-67
2021/05/28 11:06:26;;;;;;;18.48;5.05;;;19.10;89.40;;;;;;5066192;28;20024;-68
2021/05/28 11:09:07;;;;;;;9.57;3.17;;;19.10;89.40;;;;;;5065344;28;20100;-68
2021/05/28 11:11:39;;;;;;;13.60;3.53;;;19.10;89.30;;;;;;5065064;28;20039;-67
2021/05/28 11:14:10;;;;;;;14.13;3.00;;;19.10;89.30;;;;;;5062888;28;20075;-68
2021/05/28 11:16:55;;;;;;;24.63;5.45;;;19.10;89.20;;;;;;5066856;28;20430;-67
2021/05/28 11:19:30;;;;;;;14.82;3.10;;;19.10;90.00;;;;;;5066981;28;20130;-67
2021/05/28 11:21:58;;;;;;;14.55;3.22;;;19.10;89.40;;;;;;5068160;28;20039;-68
2021/05/28 11:24:44;;;;;;;16.58;4.20;;;19.20;89.30;;;;;;5047421;28;20045;-69
2021/05/28 11:27:33;;;;;;;15.82;4.00;;;19.20;89.10;;;;;;5063341;28;20025;-68
2021/05/28 11:30:02;;;;;;;18.23;3.33;;;19.20;88.80;;;;;;5063659;28;20043;-67
2021/05/28 11:32:32;;;;;;;13.10;2.65;;;19.20;88.70;;;;;;5062635;28;20604;-67
2021/05/28 11:35:17;;;;;;;12.85;3.28;;;19.20;88.60;;;;;;5066086;28;20037;-68
2021/05/28 11:38:00;;;;;;;15.23;3.50;;;19.20;88.50;;;;;;5062015;28;20066;-68
2021/05/28 11:40:30;;;;;;;11.93;3.90;;;19.30;88.50;;;;;;5066996;28;20027;-68
2021/05/28 11:43:10;;;;;;;15.07;3.38;;;19.30;88.40;;;;;;5067944;28;20012;-69
2021/05/28 11:45:56;;;;;;;11.38;3.03;;;19.30;88.30;;;;;;5066411;28;20020;-67
2021/05/28 11:48:25;;;;;;;;;;;19.20;88.10;;;;;;5067295;28;20025;-68
2021/05/28 11:50:57;;;;;;;11.00;4.93;;;19.20;88.10;;;;;;5068266;28;19904;-68
2021/05/28 11:53:32;;;;;;;6.45;2.80;;;19.20;88.10;;;;;;5064452;28;20038;-69
2021/05/28 11:55:59;;;;;;;10.57;3.65;;;19.20;88.70;;;;;;5063817;28;20091;-67
2021/05/28 11:58:34;;;;;;;18.10;3.67;;;19.20;88.20;;;;;;5066151;28;20019;-68
2021/05/28 12:01:03;;;;;;;12.93;2.85;;;19.20;88.20;;;;;;5064299;28;20430;-68
2021/05/28 12:03:29;;;;;;;22.90;6.15;;;19.20;88.10;;;;;;5066786;28;20020;-67
2021/05/28 12:05:56;;;;;;;12.80;3.35;;;19.20;88.10;;;;;;5064052;28;20407;-67
2021/05/28 12:08:29;;;;;;;15.93;4.78;;;19.20;88.20;;;;;;5068073;28;20043;-69
2021/05/28 12:11:00;;;;;;;17.52;3.88;;;19.20;88.30;;;;;;5067032;28;20066;-67
2021/05/28 12:13:35;;;;;;;10.18;3.20;;;19.20;88.40;;;;;;5062923;28;20535;-67
2021/05/28 12:16:11;;;;;;;15.23;3.22;;;19.10;88.50;;;;;;5063740;28;20024;-68
2021/05/28 12:18:43;;;;;;;;;;;19.20;88.70;;;;;;5066247;28;20013;-67
2021/05/28 12:21:13;;;;;;;15.02;4.60;;;19.10;88.70;;;;;;5066441;28;19948;-67
2021/05/28 12:23:44;;;;;;;12.25;3.70;;;19.10;88.70;;;;;;5062508;28;20019;-67
2021/05/28 12:26:14;;;;;;;14.45;4.22;;;19.10;88.70;;;;;;5065509;28;20435;-67
2021/05/28 12:28:43;;;;;;;14.43;5.05;;;19.10;88.80;;;;;;5063220;28;20101;-69
2021/05/28 12:31:12;;;;;;;13.55;2.88;;;19.10;88.90;;;;;;5066591;28;20024;-68
2021/05/28 12:33:52;;;;;;;19.15;4.32;;;19.10;88.90;;;;;;5062965;28;20640;-69
2021/05/28 12:36:38;;;;;;;12.45;3.70;;;19.10;88.90;;;;;;5060553;28;20025;-68
2021/05/28 12:39:06;;;;;;;15.18;3.45;;;19.10;88.90;;;;;;5063735;28;20388;-67
2021/05/28 12:41:34;;;;;;;18.55;5.25;;;19.10;88.90;;;;;;5063980;28;20013;-68
2021/05/28 12:44:02;;;;;;;19.58;4.50;;;19.10;89.10;;;;;;5063739;28;20637;-66
2021/05/28 12:46:31;;;;;;;15.63;3.85;;;19.10;89.20;;;;;;5066490;28;20063;-69
2021/05/28 12:49:05;;;;;;;12.10;3.45;;;19.10;89.10;;;;;;5062866;28;20019;-69
2021/05/28 12:51:40;;;;;;;14.27;3.50;;;19.10;89.20;;;;;;5065367;28;20021;-67
2021/05/28 12:54:30;;;;;;;14.60;4.50;;;19.10;89.20;;;;;;5065400;28;20678;-67